Darstellungsparameter: Aktuell verwendete Einstellungen:
Skalierung der Graphiken ... ?
xyx+y,   Skalierungsfaktor:      Skalierung: Modus: x, Faktor: 1
Darstellungszeitraum ... ?
Vom - - bis: - -   Zeitraum: 29.06.2008 - 03.07.2008
Min/Max/Avg-Anzeige ... ?
Zeige MMA aktuell
Zeige MMA Monat
Zeige MMA alles
Zeige --A aktuell
Zeige --A Monat
Zeige --A alles
Keine MMA-Anzeige
MMA:
Keine MMA-Graphiken
MMA-Basis: 29.06.2008 - 03.07.2008
Quicknavigation für Darstellung... ?
Tage:      1T, 2T, 3T, 5T -1T -2T -3T -5T +1T +2T +3T +5T
Wochen: 1W, 2W, 3W -1W -2W -3W +1W +2W +3W
Monate: 1M, 3M, 6M -1M -3M -6M +1M +3M +6M
Jahre:    1J, 3J, 5J, 10J -1J -3J -5J -10J +1J +3J +5J +10J
Nutze für die Darstellung ... ?
Originaldaten oder Mittelwerte auf ...
Stundenbasis Tagesbasis Wochenbasis
Monatsbasis Jahresbasis      Datenbasis: Original-Daten
Darstellen als:
Statistik (Auto) Statistik J:M      Darstellung:
Zur Graphik,    zurück zur Übersicht aller Sensoren.
 
Tabellarische Datenbersicht: ?
 
Sensor: Nr:Datum:Temp:Abs-Feuchte:Windchill:Wind:
Aussen-T/F 1 29-06-2008 00:07:01 18.8 C 9.99 g/m*3 18.8 C 0 km/h
2 29-06-2008 00:19:01 18.6 C 9.87 g/m*3 18.6 C 0 km/h
3 29-06-2008 00:31:01 18.3 C 10.01 g/m*3 18.3 C 0 km/h
4 29-06-2008 00:43:01 18.3 C 10.01 g/m*3 18.3 C 0 km/h
5 29-06-2008 00:55:01 17.9 C 10.23 g/m*3 17.9 C 0 km/h
6 29-06-2008 01:07:01 17.4 C 10.23 g/m*3 17.4 C 0 km/h
7 29-06-2008 01:19:01 17.3 C 10.46 g/m*3 17.3 C 0 km/h
8 29-06-2008 01:31:02 17 C 10.42 g/m*3 17 C 0 km/h
9 29-06-2008 01:43:02 16.9 C 10.64 g/m*3 16.9 C 0 km/h
10 29-06-2008 01:55:02 16.8 C 10.58 g/m*3 16.8 C 0 km/h
11 29-06-2008 02:07:02 16.8 C 10.72 g/m*3 16.8 C 0 km/h
12 29-06-2008 02:19:02 17 C 10.56 g/m*3 17 C 0 km/h
13 29-06-2008 02:31:02 17.1 C 10.48 g/m*3 17.1 C 0 km/h
14 29-06-2008 02:43:02 17.2 C 10.54 g/m*3 17.2 C 0 km/h
15 29-06-2008 02:55:02 17.2 C 10.54 g/m*3 17.2 C 0 km/h
16 29-06-2008 03:07:02 16.7 C 10.52 g/m*3 16.7 C 0 km/h
17 29-06-2008 03:19:02 16.4 C 10.61 g/m*3 16.4 C 0 km/h
18 29-06-2008 03:31:02 16.3 C 10.68 g/m*3 16.3 C 0 km/h
19 29-06-2008 03:43:02 16.3 C 10.54 g/m*3 16.3 C 0 km/h
20 29-06-2008 03:55:02 16 C 10.35 g/m*3 16 C 0 km/h
21 29-06-2008 04:07:02 16 C 10.49 g/m*3 16 C 0 km/h
22 29-06-2008 04:19:02 15.8 C 10.63 g/m*3 15.8 C 0 km/h
23 29-06-2008 04:31:02 15.8 C 10.77 g/m*3 15.8 C 0 km/h
24 29-06-2008 04:43:02 15.9 C 10.83 g/m*3 15.9 C 0 km/h
25 29-06-2008 04:55:02 16 C 10.76 g/m*3 16 C 0 km/h
Sensor: Nr:Datum:Temp:Abs-Feuchte:Windchill:Wind:
Aussen-T/F 26 29-06-2008 05:07:02 15.8 C 10.63 g/m*3 15.8 C 0 km/h
27 29-06-2008 05:19:03 15.6 C 10.77 g/m*3 15.6 C 0 km/h
28 29-06-2008 05:31:03 15.9 C 10.83 g/m*3 15.9 C 0 km/h
29 29-06-2008 05:43:03 16 C 10.63 g/m*3 16 C 0 km/h
30 29-06-2008 05:55:03 16.2 C 10.76 g/m*3 16.2 C 0 km/h
31 29-06-2008 06:07:03 16.3 C 10.68 g/m*3 16.3 C 0 km/h
32 29-06-2008 06:19:03 16.1 C 10.55 g/m*3 16.1 C 0 km/h
33 29-06-2008 06:31:03 16.4 C 10.75 g/m*3 16.4 C 0 km/h
34 29-06-2008 06:43:03 16.6 C 10.74 g/m*3 16.6 C 0 km/h
35 29-06-2008 06:55:03 16.6 C 10.74 g/m*3 16.6 C 0 km/h
36 29-06-2008 07:07:03 16.6 C 10.88 g/m*3 16.6 C 0 km/h
37 29-06-2008 07:19:03 16.5 C 10.81 g/m*3 16.5 C 0 km/h
38 29-06-2008 07:31:03 16.7 C 10.8 g/m*3 16.7 C 0 km/h
39 29-06-2008 07:43:03 16.6 C 10.59 g/m*3 16.6 C 0 km/h
40 29-06-2008 07:55:03 17 C 10.56 g/m*3 17 C 0 km/h
41 29-06-2008 08:07:03 17.2 C 10.54 g/m*3 17.2 C 0 km/h
42 29-06-2008 08:19:03 17.6 C 10.35 g/m*3 17.6 C 0 km/h
43 29-06-2008 08:31:03 17.9 C 10.38 g/m*3 17.9 C 0 km/h
44 29-06-2008 08:43:03 18.1 C 9.58 g/m*3 18.1 C 0 km/h
45 29-06-2008 08:55:03 18.4 C 9.75 g/m*3 18.4 C 0 km/h
46 29-06-2008 09:07:02 18.8 C 9.99 g/m*3 18.8 C 0 km/h
47 29-06-2008 09:19:02 19.1 C 9.67 g/m*3 19.1 C 0 km/h
48 29-06-2008 09:31:01 19.5 C 9.57 g/m*3 19.5 C 0 km/h
49 29-06-2008 09:43:01 19.9 C 9.62 g/m*3 19.9 C 0 km/h
50 29-06-2008 09:55:01 20.1 C 9.39 g/m*3 20.1 C 0 km/h
Sensor: Nr:Datum:Temp:Abs-Feuchte:Windchill:Wind:
Aussen-T/F 51 29-06-2008 10:07:02 20.8 C 9.6 g/m*3 20.8 C 0 km/h
52 29-06-2008 10:19:02 21.6 C 9.67 g/m*3 21.6 C 0 km/h
53 29-06-2008 10:31:02 21.9 C 9.65 g/m*3 21.9 C 0 km/h
54 29-06-2008 10:43:02 22.6 C 9.44 g/m*3 22.6 C 0 km/h
55 29-06-2008 10:55:02 23 C 9.04 g/m*3 23 C 0 km/h
56 29-06-2008 11:07:02 23.3 C 9.2 g/m*3 23.3 C 0 km/h
57 29-06-2008 11:19:02 23.4 C 9.04 g/m*3 23.4 C 0 km/h
58 29-06-2008 11:31:03 23.8 C 8.82 g/m*3 23.8 C 0 km/h
59 29-06-2008 11:43:03 24.7 C 8.37 g/m*3 24.7 C 0 km/h
60 29-06-2008 11:55:02 24.8 C 8.19 g/m*3 24.8 C 0 km/h
61 29-06-2008 12:07:02 25.4 C 7.77 g/m*3 25.4 C 0 km/h
62 29-06-2008 12:19:02 25.3 C 7.73 g/m*3 25.3 C 0 km/h
63 29-06-2008 12:31:02 25.8 C 7.46 g/m*3 25.8 C 0 km/h
64 29-06-2008 12:43:02 26 C 7.79 g/m*3 26 C 0 km/h
65 29-06-2008 12:55:02 27.1 C 8.02 g/m*3 27.1 C 0 km/h
66 29-06-2008 13:07:02 27.8 C 7.8 g/m*3 27.8 C 0 km/h
67 29-06-2008 13:19:02 27.7 C 8.02 g/m*3 27.7 C 0 km/h
68 29-06-2008 13:31:02 27.9 C 8.11 g/m*3 27.9 C 0 km/h
69 29-06-2008 13:43:02 27.9 C 7.84 g/m*3 27.9 C 0 km/h
70 29-06-2008 13:55:02 28.3 C 7.46 g/m*3 28.3 C 0 km/h
71 29-06-2008 14:07:02 28.1 C 7.38 g/m*3 28.1 C 0 km/h
72 29-06-2008 14:19:02 27.5 C 7.94 g/m*3 27.5 C 0 km/h
73 29-06-2008 14:31:03 27.5 C 7.41 g/m*3 27.5 C 0 km/h
74 29-06-2008 14:43:03 28 C 7.61 g/m*3 28 C 0 km/h
75 29-06-2008 14:55:02 28.2 C 7.15 g/m*3 28.2 C 0 km/h
Sensor: Nr:Datum:Temp:Abs-Feuchte:Windchill:Wind:
Aussen-T/F 76 29-06-2008 15:07:01 29 C 7.47 g/m*3 29 C 0 km/h
77 29-06-2008 15:19:02 28.8 C 7.1 g/m*3 28.8 C 0 km/h
78 29-06-2008 15:31:02 28.4 C 6.95 g/m*3 28.4 C 0 km/h
79 29-06-2008 15:43:02 28.8 C 7.1 g/m*3 28.8 C 0 km/h
80 29-06-2008 15:55:02 29.2 C 7.26 g/m*3 29.2 C 0 km/h
81 29-06-2008 16:07:01 29.7 C 7.16 g/m*3 29.7 C 0 km/h
82 29-06-2008 16:19:02 29.9 C 7.24 g/m*3 29.9 C 0 km/h
83 29-06-2008 16:31:02 29.7 C 6.86 g/m*3 29.7 C 0 km/h
84 29-06-2008 16:43:02 29.9 C 7.24 g/m*3 29.9 C 0 km/h
85 29-06-2008 16:55:02 30.1 C 7.01 g/m*3 30.1 C 0 km/h
86 29-06-2008 17:07:02 30 C 6.67 g/m*3 30 C 0 km/h
87 29-06-2008 17:19:02 30 C 6.97 g/m*3 30 C 0 km/h
88 29-06-2008 17:31:02 30.7 C 6.61 g/m*3 30.7 C 0 km/h
89 29-06-2008 17:43:02 30.3 C 6.78 g/m*3 30.3 C 0 km/h
90 29-06-2008 17:55:01 30.8 C 6.65 g/m*3 30.8 C 0 km/h
91 29-06-2008 18:07:02 29.8 C 7.2 g/m*3 29.8 C 0 km/h
92 29-06-2008 18:19:02 30.3 C 7.4 g/m*3 30.3 C 0 km/h
93 29-06-2008 18:31:02 30.8 C 6.97 g/m*3 30.8 C 0 km/h
94 29-06-2008 18:43:02 30.4 C 7.13 g/m*3 30.4 C 0 km/h
95 29-06-2008 18:55:02 29.7 C 7.46 g/m*3 29.7 C 0 km/h
96 29-06-2008 19:07:02 29.7 C 7.46 g/m*3 29.7 C 0 km/h
97 29-06-2008 19:19:02 29.7 C 7.46 g/m*3 29.7 C 0 km/h
98 29-06-2008 19:31:02 29.4 C 7.63 g/m*3 29.4 C 0 km/h
99 29-06-2008 19:43:02 29.5 C 7.67 g/m*3 29.5 C 0 km/h
100 29-06-2008 19:55:02 29.1 C 7.51 g/m*3 29.1 C 0 km/h
Sensor: Nr:Datum:Temp:Abs-Feuchte:Windchill:Wind:
Aussen-T/F 101 29-06-2008 20:07:03 28.3 C 7.46 g/m*3 28.3 C 0 km/h
102 29-06-2008 20:19:02 27.8 C 8.07 g/m*3 27.8 C 0 km/h
103 29-06-2008 20:31:03 27.7 C 8.02 g/m*3 27.7 C 0 km/h
104 29-06-2008 20:43:03 26.3 C 7.92 g/m*3 26.3 C 0 km/h
105 29-06-2008 20:55:02 25.7 C 8.38 g/m*3 25.7 C 0 km/h
106 29-06-2008 21:07:02 25.3 C 8.43 g/m*3 25.3 C 0 km/h
107 29-06-2008 21:19:02 24.8 C 8.42 g/m*3 24.8 C 0 km/h
108 29-06-2008 21:31:01 24.5 C 8.5 g/m*3 24.5 C 0 km/h
109 29-06-2008 21:43:01 23.8 C 8.6 g/m*3 23.8 C 0 km/h
110 29-06-2008 21:55:01 23.5 C 8.67 g/m*3 23.5 C 0 km/h
111 29-06-2008 22:07:01 23.6 C 8.72 g/m*3 23.6 C 0 km/h
112 29-06-2008 22:19:02 23.5 C 8.67 g/m*3 23.5 C 0 km/h
113 29-06-2008 22:32:03 23.3 C 8.57 g/m*3 23.3 C 0 km/h
114 29-06-2008 22:44:03 23.4 C 8.62 g/m*3 23.4 C 0 km/h
115 29-06-2008 22:56:03 23 C 8.22 g/m*3 23 C 0 km/h
116 29-06-2008 23:08:03 22.9 C 8.58 g/m*3 22.9 C 0 km/h
117 29-06-2008 23:20:04 22.8 C 8.53 g/m*3 22.8 C 0 km/h
118 29-06-2008 23:32:04 22.1 C 8.39 g/m*3 22.1 C 0 km/h
119 29-06-2008 23:44:04 21.4 C 8.62 g/m*3 21.4 C 0 km/h
120 29-06-2008 23:56:04 21.3 C 8.57 g/m*3 21.3 C 0 km/h
121 30-06-2008 00:08:04 21.2 C 8.52 g/m*3 21.2 C 0 km/h
122 30-06-2008 00:20:04 21.6 C 8.72 g/m*3 21.6 C 0 km/h
123 30-06-2008 00:32:04 21.3 C 8.57 g/m*3 21.3 C 0 km/h
124 30-06-2008 00:44:04 21.3 C 8.57 g/m*3 21.3 C 0 km/h
125 30-06-2008 00:56:04 20.9 C 8.56 g/m*3 20.9 C 0 km/h
Sensor: Nr:Datum:Temp:Abs-Feuchte:Windchill:Wind:
Aussen-T/F 126 30-06-2008 01:08:04 20.2 C 8.57 g/m*3 20.2 C 0 km/h
127 30-06-2008 01:20:04 19.7 C 8.66 g/m*3 19.7 C 0 km/h
128 30-06-2008 01:32:04 19.2 C 8.74 g/m*3 19.2 C 0 km/h
129 30-06-2008 01:44:04 18.6 C 8.91 g/m*3 18.6 C 0 km/h
130 30-06-2008 01:56:04 18.6 C 9.07 g/m*3 18.6 C 0 km/h
131 30-06-2008 02:08:04 18.4 C 9.12 g/m*3 18.4 C 0 km/h
132 30-06-2008 02:20:04 18.2 C 9.17 g/m*3 18.2 C 0 km/h
133 30-06-2008 02:32:04 18.1 C 9.12 g/m*3 18.1 C 0 km/h
134 30-06-2008 02:44:04 18.1 C 9.12 g/m*3 18.1 C 0 km/h
135 30-06-2008 02:56:04 17.8 C 9.26 g/m*3 17.8 C 0 km/h
136 30-06-2008 03:08:05 17.6 C 9.3 g/m*3 17.6 C 0 km/h
137 30-06-2008 03:20:05 17.5 C 9.24 g/m*3 17.5 C 0 km/h
138 30-06-2008 03:32:05 16.9 C 9.64 g/m*3 16.9 C 0 km/h
139 30-06-2008 03:44:05 16.5 C 9.69 g/m*3 16.5 C 0 km/h
140 30-06-2008 03:56:05 16.4 C 9.49 g/m*3 16.4 C 0 km/h
141 30-06-2008 04:08:05 16 C 9.4 g/m*3 16 C 0 km/h
142 30-06-2008 04:20:05 16 C 9.67 g/m*3 16 C 0 km/h
143 30-06-2008 04:32:05 15.6 C 9.58 g/m*3 15.6 C 0 km/h
144 30-06-2008 04:44:05 15.4 C 9.59 g/m*3 15.4 C 0 km/h
145 30-06-2008 04:56:05 15.4 C 9.59 g/m*3 15.4 C 0 km/h
146 30-06-2008 05:08:05 15.3 C 9.53 g/m*3 15.3 C 0 km/h
147 30-06-2008 05:20:05 15.1 C 9.55 g/m*3 15.1 C 0 km/h
148 30-06-2008 05:32:05 15 C 9.49 g/m*3 15 C 0 km/h
149 30-06-2008 05:44:05 15 C 9.62 g/m*3 15 C 0 km/h
150 30-06-2008 05:56:05 14.9 C 9.69 g/m*3 14.9 C 0 km/h
Sensor: Nr:Datum:Temp:Abs-Feuchte:Windchill:Wind:
Aussen-T/F 151 30-06-2008 06:08:05 15.1 C 9.55 g/m*3 15.1 C 0 km/h
152 30-06-2008 06:20:05 15.1 C 9.55 g/m*3 15.1 C 0 km/h
153 30-06-2008 06:32:05 15.2 C 9.61 g/m*3 15.2 C 0 km/h
154 30-06-2008 06:44:05 15.2 C 9.73 g/m*3 15.2 C 0 km/h
155 30-06-2008 06:56:01 15.2 C 9.73 g/m*3 15.2 C 0 km/h
156 30-06-2008 07:08:02 15.4 C 9.85 g/m*3 15.4 C 0 km/h
157 30-06-2008 07:20:01 15.5 C 9.78 g/m*3 15.5 C 0 km/h
158 30-06-2008 07:32:02 15.9 C 9.75 g/m*3 15.9 C 0 km/h
159 30-06-2008 07:44:02 15.5 C 9.65 g/m*3 15.5 C 0 km/h
160 30-06-2008 07:56:02 16 C 9.67 g/m*3 16 C 0 km/h
161 30-06-2008 08:08:01 16.6 C 9.46 g/m*3 16.6 C 0 km/h
162 30-06-2008 08:20:02 17 C 9.41 g/m*3 17 C 0 km/h
163 30-06-2008 08:32:02 17.2 C 9.23 g/m*3 17.2 C 0 km/h
164 30-06-2008 08:44:02 17 C 8.97 g/m*3 17 C 0 km/h
165 30-06-2008 08:56:02 17.2 C 9.08 g/m*3 17.2 C 0 km/h
166 30-06-2008 09:08:02 18 C 8.91 g/m*3 18 C 0 km/h
167 30-06-2008 09:20:02 18.1 C 8.03 g/m*3 18.1 C 0 km/h
168 30-06-2008 09:32:01 18.4 C 8.02 g/m*3 18.4 C 0 km/h
169 30-06-2008 09:44:01 19.8 C 8.2 g/m*3 19.8 C 0 km/h
170 30-06-2008 09:56:01 21.5 C 7.92 g/m*3 21.5 C 0 km/h
171 30-06-2008 10:08:01 21.7 C 7.82 g/m*3 21.7 C 0 km/h
172 30-06-2008 10:20:01 20.6 C 7.7 g/m*3 20.6 C 0 km/h
173 30-06-2008 10:32:01 20.1 C 7.82 g/m*3 20.1 C 0 km/h
174 30-06-2008 10:44:01 20.9 C 7.83 g/m*3 20.9 C 0 km/h
175 30-06-2008 10:56:01 21.4 C 7.69 g/m*3 21.4 C 0 km/h
Sensor: Nr:Datum:Temp:Abs-Feuchte:Windchill:Wind:
Aussen-T/F 176 30-06-2008 11:08:02 22.1 C 7.42 g/m*3 22.1 C 0 km/h
177 30-06-2008 11:20:01 22.5 C 7.39 g/m*3 22.5 C 0 km/h
178 30-06-2008 11:32:01 22.5 C 7.19 g/m*3 22.5 C 0 km/h
179 30-06-2008 11:44:01 23 C 7.4 g/m*3 23 C 0 km/h
180 30-06-2008 11:56:02 24.4 C 6.9 g/m*3 24.4 C 0 km/h
181 30-06-2008 12:08:02 24.3 C 6.64 g/m*3 24.3 C 0 km/h
182 30-06-2008 12:20:01 25.3 C 7.02 g/m*3 25.3 C 0 km/h
183 30-06-2008 12:32:02 26.2 C 6.89 g/m*3 26.2 C 0 km/h
184 30-06-2008 12:44:02 26 C 6.33 g/m*3 26 C 0 km/h
185 30-06-2008 12:56:02 26.3 C 6.19 g/m*3 26.3 C 0 km/h
186 30-06-2008 13:08:02 26.3 C 6.19 g/m*3 26.3 C 0 km/h
187 30-06-2008 13:20:02 28.2 C 5.77 g/m*3 28.2 C 0 km/h
188 30-06-2008 13:32:02 28.8 C 5.68 g/m*3 28.8 C 0 km/h
189 30-06-2008 13:44:02 28.9 C 6 g/m*3 28.9 C 0 km/h
190 30-06-2008 13:56:02 29.1 C 5.78 g/m*3 29.1 C 0 km/h
191 30-06-2008 14:08:01 30 C 6.06 g/m*3 30 C 0 km/h
192 30-06-2008 14:20:02 27.3 C 5.76 g/m*3 27.3 C 0 km/h
193 30-06-2008 14:32:01 28.2 C 6.32 g/m*3 28.2 C 0 km/h
194 30-06-2008 14:44:01 28.1 C 5.47 g/m*3 28.1 C 0 km/h
195 30-06-2008 14:56:03 27.8 C 6.19 g/m*3 27.8 C 0 km/h
196 30-06-2008 15:08:02 29.2 C 6.1 g/m*3 29.2 C 0 km/h
197 30-06-2008 15:20:03 30 C 6.06 g/m*3 30 C 0 km/h
198 30-06-2008 15:32:02 30.3 C 6.16 g/m*3 30.3 C 0 km/h
199 30-06-2008 15:44:02 29.8 C 6 g/m*3 29.8 C 0 km/h
200 30-06-2008 15:56:02 30.6 C 6.26 g/m*3 30.6 C 0 km/h
Sensor: Nr:Datum:Temp:Abs-Feuchte:Windchill:Wind:
Aussen-T/F 201 30-06-2008 16:08:02 31.3 C 6.5 g/m*3 31.3 C 0 km/h
202 30-06-2008 16:20:03 31.4 C 6.54 g/m*3 31.4 C 0 km/h
203 30-06-2008 16:32:02 31 C 6.4 g/m*3 31 C 0 km/h
204 30-06-2008 16:44:02 31.2 C 6.47 g/m*3 31.2 C 0 km/h
205 30-06-2008 16:56:02 30.7 C 6.3 g/m*3 30.7 C 0 km/h
206 30-06-2008 17:08:02 30.9 C 6.37 g/m*3 30.9 C 0 km/h
207 30-06-2008 17:20:02 30.6 C 6.26 g/m*3 30.6 C 0 km/h
208 30-06-2008 17:32:02 31.2 C 6.47 g/m*3 31.2 C 0 km/h
209 30-06-2008 17:44:02 31.6 C 6.61 g/m*3 31.6 C 0 km/h
210 30-06-2008 17:56:01 31.9 C 6.72 g/m*3 31.9 C 0 km/h
211 30-06-2008 18:08:02 32.3 C 6.86 g/m*3 32.3 C 0 km/h
212 30-06-2008 18:20:01 32.6 C 6.97 g/m*3 32.6 C 0 km/h
213 30-06-2008 18:32:02 32.8 C 7.04 g/m*3 32.8 C 0 km/h
214 30-06-2008 18:44:02 32.6 C 6.97 g/m*3 32.6 C 0 km/h
215 30-06-2008 18:56:02 31.8 C 6.68 g/m*3 31.8 C 0 km/h
216 30-06-2008 19:08:02 31.5 C 6.57 g/m*3 31.5 C 0 km/h
217 30-06-2008 19:20:02 31.7 C 6.64 g/m*3 31.7 C 0 km/h
218 30-06-2008 19:32:02 30.6 C 6.26 g/m*3 30.6 C 0 km/h
219 30-06-2008 19:44:02 30.2 C 6.13 g/m*3 30.2 C 0 km/h
220 30-06-2008 19:56:02 29.8 C 6 g/m*3 29.8 C 0 km/h
221 30-06-2008 20:08:01 29 C 6.03 g/m*3 29 C 0 km/h
222 30-06-2008 20:20:02 28.5 C 6.15 g/m*3 28.5 C 0 km/h
223 30-06-2008 20:32:01 28.2 C 6.32 g/m*3 28.2 C 0 km/h
224 30-06-2008 20:44:01 27.5 C 6.61 g/m*3 27.5 C 0 km/h
225 30-06-2008 20:56:03 27 C 6.69 g/m*3 27 C 0 km/h
Sensor: Nr:Datum:Temp:Abs-Feuchte:Windchill:Wind:
Aussen-T/F 226 30-06-2008 21:08:02 26.4 C 6.72 g/m*3 26.4 C 0 km/h
227 30-06-2008 21:20:03 25.3 C 7.26 g/m*3 25.3 C 0 km/h
228 30-06-2008 21:32:02 24 C 7.4 g/m*3 24 C 0 km/h
229 30-06-2008 21:44:02 23.6 C 7.66 g/m*3 23.6 C 0 km/h
230 30-06-2008 21:56:02 23.5 C 7.82 g/m*3 23.5 C 0 km/h
231 30-06-2008 22:08:02 23.1 C 7.86 g/m*3 23.1 C 0 km/h
232 30-06-2008 22:21:02 22.8 C 7.92 g/m*3 22.8 C 0 km/h
233 30-06-2008 22:33:02 22.3 C 7.9 g/m*3 22.3 C 0 km/h
234 30-06-2008 22:45:02 22.4 C 7.94 g/m*3 22.4 C 0 km/h
235 30-06-2008 22:57:03 21.9 C 8.1 g/m*3 21.9 C 0 km/h
236 30-06-2008 23:09:03 21.4 C 8.06 g/m*3 21.4 C 0 km/h
237 30-06-2008 23:21:03 21.2 C 8.15 g/m*3 21.2 C 0 km/h
238 30-06-2008 23:33:03 20.8 C 8.15 g/m*3 20.8 C 0 km/h
239 30-06-2008 23:45:03 20.7 C 8.28 g/m*3 20.7 C 0 km/h
240 30-06-2008 23:57:03 20.2 C 8.22 g/m*3 20.2 C 0 km/h
241 01-07-2008 00:09:03 20 C 8.12 g/m*3 20 C 0 km/h
242 01-07-2008 00:21:03 19.8 C 8.2 g/m*3 19.8 C 0 km/h
243 01-07-2008 00:33:03 19.9 C 8.25 g/m*3 19.9 C 0 km/h
244 01-07-2008 00:45:03 19.5 C 8.22 g/m*3 19.5 C 0 km/h
245 01-07-2008 00:57:03 19.3 C 8.13 g/m*3 19.3 C 0 km/h
246 01-07-2008 01:09:03 19 C 7.99 g/m*3 19 C 0 km/h
247 01-07-2008 01:21:03 18.8 C 8.05 g/m*3 18.8 C 0 km/h
248 01-07-2008 01:33:03 18.7 C 8.01 g/m*3 18.7 C 0 km/h
249 01-07-2008 01:45:03 18.3 C 8.44 g/m*3 18.3 C 0 km/h
250 01-07-2008 01:57:03 17.9 C 8.55 g/m*3 17.9 C 0 km/h
Sensor: Nr:Datum:Temp:Abs-Feuchte:Windchill:Wind:
Aussen-T/F 251 01-07-2008 02:09:03 17.7 C 8.3 g/m*3 17.7 C 0 km/h
252 01-07-2008 02:21:03 17.5 C 8.35 g/m*3 17.5 C 0 km/h
253 01-07-2008 02:33:03 17.2 C 8.35 g/m*3 17.2 C 0 km/h
254 01-07-2008 02:45:03 16.8 C 8.58 g/m*3 16.8 C 0 km/h
255 01-07-2008 02:57:04 16.7 C 8.67 g/m*3 16.7 C 0 km/h
256 01-07-2008 03:09:04 16.3 C 8.46 g/m*3 16.3 C 0 km/h
257 01-07-2008 03:21:04 16.3 C 8.46 g/m*3 16.3 C 0 km/h
258 01-07-2008 03:33:04 16.1 C 8.5 g/m*3 16.1 C 0 km/h
259 01-07-2008 03:45:04 15.8 C 8.62 g/m*3 15.8 C 0 km/h
260 01-07-2008 03:57:04 15.7 C 8.43 g/m*3 15.7 C 0 km/h
261 01-07-2008 04:09:04 15.7 C 8.56 g/m*3 15.7 C 0 km/h
262 01-07-2008 04:21:04 15.4 C 8.54 g/m*3 15.4 C 0 km/h
263 01-07-2008 04:33:04 15.2 C 8.44 g/m*3 15.2 C 0 km/h
264 01-07-2008 04:45:04 15.2 C 8.57 g/m*3 15.2 C 0 km/h
265 01-07-2008 04:57:04 15 C 8.72 g/m*3 15 C 0 km/h
266 01-07-2008 05:09:04 14.6 C 8.76 g/m*3 14.6 C 0 km/h
267 01-07-2008 05:21:04 14.4 C 8.65 g/m*3 14.4 C 0 km/h
268 01-07-2008 05:33:04 14.4 C 8.78 g/m*3 14.4 C 0 km/h
269 01-07-2008 05:45:04 14.4 C 8.78 g/m*3 14.4 C 0 km/h
270 01-07-2008 05:57:04 14.1 C 8.86 g/m*3 14.1 C 0 km/h
271 01-07-2008 06:09:04 13.9 C 8.87 g/m*3 13.9 C 0 km/h
272 01-07-2008 06:21:04 14 C 8.93 g/m*3 14 C 0 km/h
273 01-07-2008 06:33:04 14.1 C 8.86 g/m*3 14.1 C 0 km/h
274 01-07-2008 06:45:04 14.2 C 8.91 g/m*3 14.2 C 0 km/h
275 01-07-2008 06:57:05 14.2 C 8.91 g/m*3 14.2 C 0 km/h
Sensor: Nr:Datum:Temp:Abs-Feuchte:Windchill:Wind:
Aussen-T/F 276 01-07-2008 07:09:01 14.2 C 8.91 g/m*3 14.2 C 0 km/h
277 01-07-2008 07:21:02 14.3 C 8.97 g/m*3 14.3 C 0 km/h
278 01-07-2008 07:33:01 14.4 C 8.9 g/m*3 14.4 C 0 km/h
279 01-07-2008 07:45:02 14.6 C 9.01 g/m*3 14.6 C 0 km/h
280 01-07-2008 07:57:02 14.8 C 8.99 g/m*3 14.8 C 0 km/h
281 01-07-2008 08:09:01 15.2 C 9.09 g/m*3 15.2 C 0 km/h
282 01-07-2008 08:21:02 15.8 C 9.42 g/m*3 15.8 C 0 km/h
283 01-07-2008 08:33:02 16.1 C 9.32 g/m*3 16.1 C 0 km/h
284 01-07-2008 08:45:02 16.6 C 9.32 g/m*3 16.6 C 0 km/h
285 01-07-2008 08:57:02 17.1 C 9.32 g/m*3 17.1 C 0 km/h
286 01-07-2008 09:09:02 17.7 C 9.35 g/m*3 17.7 C 0 km/h
287 01-07-2008 09:21:02 18.3 C 9.38 g/m*3 18.3 C 0 km/h
288 01-07-2008 09:33:02 19.1 C 9.34 g/m*3 19.1 C 0 km/h
289 01-07-2008 09:45:02 19.7 C 9.34 g/m*3 19.7 C 0 km/h
290 01-07-2008 09:57:02 20.7 C 9.36 g/m*3 20.7 C 0 km/h
291 01-07-2008 10:09:01 21.4 C 9.19 g/m*3 21.4 C 0 km/h
292 01-07-2008 10:21:02 22.3 C 9.08 g/m*3 22.3 C 0 km/h
293 01-07-2008 10:33:01 22.8 C 8.74 g/m*3 22.8 C 0 km/h
294 01-07-2008 10:45:02 23.8 C 8.82 g/m*3 23.8 C 0 km/h
295 01-07-2008 10:57:02 24.4 C 8.46 g/m*3 24.4 C 0 km/h
296 01-07-2008 11:09:01 25.2 C 8.61 g/m*3 25.2 C 0 km/h
297 01-07-2008 11:21:02 25.4 C 8.24 g/m*3 25.4 C 0 km/h
298 01-07-2008 11:33:01 25.8 C 8.19 g/m*3 25.8 C 0 km/h
299 01-07-2008 11:45:03 26.8 C 8.14 g/m*3 26.8 C 0 km/h
300 01-07-2008 11:57:03 26.3 C 7.67 g/m*3 26.3 C 0 km/h
Sensor: Nr:Datum:Temp:Abs-Feuchte:Windchill:Wind:
Aussen-T/F 301 01-07-2008 12:09:02 28.2 C 7.42 g/m*3 28.2 C 0 km/h
302 01-07-2008 12:21:03 29.2 C 7.26 g/m*3 29.2 C 0 km/h
303 01-07-2008 12:33:02 30.1 C 7.32 g/m*3 30.1 C 0 km/h
304 01-07-2008 12:45:02 30.2 C 7.05 g/m*3 30.2 C 0 km/h
305 01-07-2008 12:57:02 30.1 C 6.71 g/m*3 30.1 C 0 km/h
306 01-07-2008 13:09:02 30.6 C 6.58 g/m*3 30.6 C 0 km/h
307 01-07-2008 13:21:02 31 C 6.4 g/m*3 31 C 0 km/h
308 01-07-2008 13:33:02 31.5 C 6.57 g/m*3 31.5 C 0 km/h
309 01-07-2008 13:45:02 31.7 C 6.64 g/m*3 31.7 C 0 km/h
310 01-07-2008 13:57:02 31.8 C 6.68 g/m*3 31.8 C 0 km/h
311 01-07-2008 14:09:02 31.8 C 6.68 g/m*3 31.8 C 0 km/h
312 01-07-2008 14:21:02 31.4 C 6.54 g/m*3 31.4 C 0 km/h
313 01-07-2008 14:33:03 31.7 C 6.64 g/m*3 31.7 C 0 km/h
314 01-07-2008 14:45:02 32 C 6.75 g/m*3 32 C 0 km/h
315 01-07-2008 14:57:02 32 C 6.75 g/m*3 32 C 0 km/h
316 01-07-2008 15:09:02 31.9 C 6.72 g/m*3 31.9 C 0 km/h
317 01-07-2008 15:21:02 32 C 6.75 g/m*3 32 C 0 km/h
318 01-07-2008 15:33:02 32.7 C 7.01 g/m*3 32.7 C 0 km/h
319 01-07-2008 15:45:02 32.7 C 7.01 g/m*3 32.7 C 0 km/h
320 01-07-2008 15:57:02 33.3 C 7.23 g/m*3 33.3 C 0 km/h
321 01-07-2008 16:09:01 32.8 C 7.04 g/m*3 32.8 C 0 km/h
322 01-07-2008 16:21:02 33.2 C 7.2 g/m*3 33.2 C 0 km/h
323 01-07-2008 16:33:01 33.3 C 7.23 g/m*3 33.3 C 0 km/h
324 01-07-2008 16:45:03 33.7 C 7.39 g/m*3 33.7 C 0 km/h
325 01-07-2008 16:57:03 33.8 C 7.43 g/m*3 33.8 C 0 km/h
Sensor: Nr:Datum:Temp:Abs-Feuchte:Windchill:Wind:
Aussen-T/F 326 01-07-2008 17:09:02 34.1 C 7.54 g/m*3 34.1 C 0 km/h
327 01-07-2008 17:21:03 34.2 C 7.58 g/m*3 34.2 C 0 km/h
328 01-07-2008 17:33:02 33.9 C 7.46 g/m*3 33.9 C 0 km/h
329 01-07-2008 17:45:01 34 C 7.5 g/m*3 34 C 0 km/h
330 01-07-2008 17:57:01 34 C 7.5 g/m*3 34 C 0 km/h
331 01-07-2008 18:09:02 33.7 C 7.39 g/m*3 33.7 C 0 km/h
332 01-07-2008 18:21:01 34.2 C 7.58 g/m*3 34.2 C 0 km/h
333 01-07-2008 18:33:01 34 C 7.5 g/m*3 34 C 0 km/h
334 01-07-2008 18:45:01 33.8 C 7.43 g/m*3 33.8 C 0 km/h
335 01-07-2008 18:57:01 34 C 7.5 g/m*3 34 C 0 km/h
336 01-07-2008 19:09:02 34.1 C 7.54 g/m*3 34.1 C 0 km/h
337 01-07-2008 19:21:01 33.8 C 7.43 g/m*3 33.8 C 0 km/h
338 01-07-2008 19:33:02 33.8 C 7.43 g/m*3 33.8 C 0 km/h
339 01-07-2008 19:45:02 33.8 C 7.43 g/m*3 33.8 C 0 km/h
340 01-07-2008 19:57:02 33.5 C 7.31 g/m*3 33.5 C 0 km/h
341 01-07-2008 20:09:02 33.1 C 7.16 g/m*3 33.1 C 0 km/h
342 01-07-2008 20:21:02 32.6 C 6.97 g/m*3 32.6 C 0 km/h
343 01-07-2008 20:33:02 32.3 C 6.86 g/m*3 32.3 C 0 km/h
344 01-07-2008 20:45:01 31.6 C 6.94 g/m*3 31.6 C 0 km/h
345 01-07-2008 20:57:01 30.7 C 7.87 g/m*3 30.7 C 0 km/h
346 01-07-2008 21:09:01 29.9 C 8.14 g/m*3 29.9 C 0 km/h
347 01-07-2008 21:21:01 29 C 8.04 g/m*3 29 C 0 km/h
348 01-07-2008 21:33:02 28.3 C 8.29 g/m*3 28.3 C 0 km/h
349 01-07-2008 21:45:03 27.6 C 8.25 g/m*3 27.6 C 0 km/h
350 01-07-2008 21:57:03 26.9 C 8.19 g/m*3 26.9 C 0 km/h
Sensor: Nr:Datum:Temp:Abs-Feuchte:Windchill:Wind:
Aussen-T/F 351 01-07-2008 22:09:02 26.4 C 8.21 g/m*3 26.4 C 0 km/h
352 01-07-2008 22:22:03 26 C 8.52 g/m*3 26 C 0 km/h
353 01-07-2008 22:34:03 25.4 C 8.48 g/m*3 25.4 C 0 km/h
354 01-07-2008 22:46:03 25.3 C 8.66 g/m*3 25.3 C 0 km/h
355 01-07-2008 22:58:03 25.1 C 8.57 g/m*3 25.1 C 0 km/h
356 01-07-2008 23:10:03 24.8 C 8.65 g/m*3 24.8 C 0 km/h
357 01-07-2008 23:22:03 24.5 C 8.73 g/m*3 24.5 C 0 km/h
358 01-07-2008 23:34:03 24.4 C 8.68 g/m*3 24.4 C 0 km/h
359 01-07-2008 23:46:03 24.2 C 8.8 g/m*3 24.2 C 0 km/h
360 01-07-2008 23:58:03 24.1 C 8.75 g/m*3 24.1 C 0 km/h
361 02-07-2008 00:10:03 24 C 8.49 g/m*3 24 C 0 km/h
362 02-07-2008 00:22:03 23.9 C 8.87 g/m*3 23.9 C 0 km/h
363 02-07-2008 00:34:03 23.9 C 8.65 g/m*3 23.9 C 0 km/h
364 02-07-2008 00:46:03 23.7 C 8.77 g/m*3 23.7 C 0 km/h
365 02-07-2008 00:58:03 23.7 C 8.77 g/m*3 23.7 C 0 km/h
366 02-07-2008 01:10:03 23.6 C 8.93 g/m*3 23.6 C 0 km/h
367 02-07-2008 01:22:03 23.5 C 8.88 g/m*3 23.5 C 0 km/h
368 02-07-2008 01:34:03 23.4 C 8.83 g/m*3 23.4 C 0 km/h
369 02-07-2008 01:46:03 23.2 C 9.15 g/m*3 23.2 C 0 km/h
370 02-07-2008 01:58:03 22.8 C 9.75 g/m*3 22.8 C 0 km/h
371 02-07-2008 02:10:04 22.3 C 9.87 g/m*3 22.3 C 0 km/h
372 02-07-2008 02:22:04 22.1 C 9.56 g/m*3 22.1 C 0 km/h
373 02-07-2008 02:34:04 21.8 C 9.78 g/m*3 21.8 C 0 km/h
374 02-07-2008 02:46:04 21.6 C 9.86 g/m*3 21.6 C 0 km/h
375 02-07-2008 02:58:04 21.4 C 9.75 g/m*3 21.4 C 0 km/h
Sensor: Nr:Datum:Temp:Abs-Feuchte:Windchill:Wind:
Aussen-T/F 376 02-07-2008 03:10:04 21.1 C 10.13 g/m*3 21.1 C 0 km/h
377 02-07-2008 03:22:04 21 C 10.08 g/m*3 21 C 0 km/h
378 02-07-2008 03:34:04 20.8 C 10.14 g/m*3 20.8 C 0 km/h
379 02-07-2008 03:46:04 20.6 C 10.02 g/m*3 20.6 C 0 km/h
380 02-07-2008 03:58:04 20.4 C 10.08 g/m*3 20.4 C 0 km/h
381 02-07-2008 04:10:04 20.4 C 10.26 g/m*3 20.4 C 0 km/h
382 02-07-2008 04:22:04 20 C 10.2 g/m*3 20 C 0 km/h
383 02-07-2008 04:34:04 19.7 C 10.36 g/m*3 19.7 C 0 km/h
384 02-07-2008 04:46:04 19.8 C 10.42 g/m*3 19.8 C 0 km/h
385 02-07-2008 04:58:04 19.5 C 10.24 g/m*3 19.5 C 0 km/h
386 02-07-2008 05:10:04 19.4 C 10.18 g/m*3 19.4 C 0 km/h
387 02-07-2008 05:22:04 19.2 C 10.22 g/m*3 19.2 C 0 km/h
388 02-07-2008 05:34:04 19.1 C 10.16 g/m*3 19.1 C 0 km/h
389 02-07-2008 05:46:04 19 C 10.1 g/m*3 19 C 0 km/h
390 02-07-2008 05:58:04 18.8 C 10.31 g/m*3 18.8 C 0 km/h
391 02-07-2008 06:10:04 18.9 C 10.37 g/m*3 18.9 C 0 km/h
392 02-07-2008 06:22:05 18.9 C 10.69 g/m*3 18.9 C 0 km/h
393 02-07-2008 06:34:05 19.1 C 10.66 g/m*3 19.1 C 0 km/h
394 02-07-2008 06:46:05 19.1 C 10.66 g/m*3 19.1 C 0 km/h
395 02-07-2008 06:58:05 19.2 C 10.72 g/m*3 19.2 C 0 km/h
396 02-07-2008 07:10:03 19.3 C 10.78 g/m*3 19.3 C 0 km/h
397 02-07-2008 07:22:03 19.5 C 10.91 g/m*3 19.5 C 0 km/h
398 02-07-2008 07:34:03 19.7 C 10.87 g/m*3 19.7 C 0 km/h
399 02-07-2008 07:46:02 19.7 C 10.87 g/m*3 19.7 C 0 km/h
400 02-07-2008 07:58:02 19.9 C 11 g/m*3 19.9 C 0 km/h
Sensor: Nr:Datum:Temp:Abs-Feuchte:Windchill:Wind:
Aussen-T/F 401 02-07-2008 08:10:02 20.4 C 10.97 g/m*3 20.4 C 0 km/h
402 02-07-2008 08:22:02 20.8 C 11.05 g/m*3 20.8 C 0 km/h
403 02-07-2008 08:34:02 21 C 10.81 g/m*3 21 C 0 km/h
404 02-07-2008 08:46:02 21.5 C 10.94 g/m*3 21.5 C 0 km/h
405 02-07-2008 08:58:02 22 C 10.67 g/m*3 22 C 0 km/h
406 02-07-2008 09:10:03 22.7 C 10.51 g/m*3 22.7 C 0 km/h
407 02-07-2008 09:22:02 23.5 C 10.57 g/m*3 23.5 C 0 km/h
408 02-07-2008 09:34:03 24.2 C 10.56 g/m*3 24.2 C 0 km/h
409 02-07-2008 09:46:02 24.9 C 10.07 g/m*3 24.9 C 0 km/h
410 02-07-2008 09:58:02 25.7 C 9.58 g/m*3 25.7 C 0 km/h
411 02-07-2008 10:10:01 26.1 C 9.3 g/m*3 26.1 C 0 km/h
412 02-07-2008 10:22:02 26.9 C 9.73 g/m*3 26.9 C 0 km/h
413 02-07-2008 10:34:01 27.5 C 9.26 g/m*3 27.5 C 0 km/h
414 02-07-2008 10:46:02 28.2 C 9.35 g/m*3 28.2 C 0 km/h
415 02-07-2008 10:58:02 28.6 C 9.55 g/m*3 28.6 C 0 km/h
416 02-07-2008 11:10:01 29.4 C 9.69 g/m*3 29.4 C 0 km/h
417 02-07-2008 11:22:02 29.7 C 9.55 g/m*3 29.7 C 0 km/h
418 02-07-2008 11:34:01 30.4 C 9.61 g/m*3 30.4 C 0 km/h
419 02-07-2008 11:46:03 30.8 C 9.5 g/m*3 30.8 C 0 km/h
420 02-07-2008 11:58:03 31.3 C 9.11 g/m*3 31.3 C 0 km/h
421 02-07-2008 12:10:02 31.8 C 8.68 g/m*3 31.8 C 0 km/h
422 02-07-2008 12:22:03 31.4 C 8.5 g/m*3 31.4 C 0 km/h
423 02-07-2008 12:34:02 31.7 C 8.64 g/m*3 31.7 C 0 km/h
424 02-07-2008 12:46:02 31.4 C 8.17 g/m*3 31.4 C 0 km/h
425 02-07-2008 12:58:02 32 C 7.43 g/m*3 32 C 0 km/h
Sensor: Nr:Datum:Temp:Abs-Feuchte:Windchill:Wind:
Aussen-T/F 426 02-07-2008 13:10:02 33.3 C 7.23 g/m*3 33.3 C 0 km/h
427 02-07-2008 13:22:02 33.8 C 7.43 g/m*3 33.8 C 0 km/h
428 02-07-2008 13:34:02 34.3 C 7.62 g/m*3 34.3 C 0 km/h
429 02-07-2008 13:46:02 32.3 C 6.86 g/m*3 32.3 C 0 km/h
430 02-07-2008 13:58:02 32.6 C 6.97 g/m*3 32.6 C 0 km/h
431 02-07-2008 14:10:02 32.9 C 7.08 g/m*3 32.9 C 0 km/h
432 02-07-2008 14:22:02 32.5 C 6.93 g/m*3 32.5 C 0 km/h
433 02-07-2008 14:34:02 32.8 C 7.04 g/m*3 32.8 C 0 km/h
434 02-07-2008 14:46:01 33.1 C 7.16 g/m*3 33.1 C 0 km/h
435 02-07-2008 14:58:01 32.5 C 6.93 g/m*3 32.5 C 0 km/h
436 02-07-2008 15:10:02 32.7 C 7.01 g/m*3 32.7 C 0 km/h
437 02-07-2008 15:22:01 32.5 C 6.93 g/m*3 32.5 C 0 km/h
438 02-07-2008 15:34:02 33.1 C 7.16 g/m*3 33.1 C 0 km/h
439 02-07-2008 15:46:02 33.3 C 7.23 g/m*3 33.3 C 0 km/h
440 02-07-2008 15:58:02 34.3 C 7.62 g/m*3 34.3 C 0 km/h
441 02-07-2008 16:10:02 33.8 C 7.43 g/m*3 33.8 C 0 km/h
442 02-07-2008 16:22:02 33.8 C 7.43 g/m*3 33.8 C 0 km/h
443 02-07-2008 16:34:02 33.8 C 7.43 g/m*3 33.8 C 0 km/h
444 02-07-2008 16:46:02 34.6 C 7.74 g/m*3 34.6 C 0 km/h
445 02-07-2008 16:58:02 34.2 C 7.58 g/m*3 34.2 C 0 km/h
446 02-07-2008 17:10:02 33.5 C 7.31 g/m*3 33.5 C 0 km/h
447 02-07-2008 17:22:02 34.4 C 7.66 g/m*3 34.4 C 0 km/h
448 02-07-2008 17:34:03 34.6 C 7.74 g/m*3 34.6 C 0 km/h
449 02-07-2008 17:46:02 35 C 7.91 g/m*3 35 C 0 km/h
450 02-07-2008 17:58:02 35.3 C 8.03 g/m*3 35.3 C 0 km/h
Sensor: Nr:Datum:Temp:Abs-Feuchte:Windchill:Wind:
Aussen-T/F 451 02-07-2008 18:10:01 35.2 C 7.99 g/m*3 35.2 C 0 km/h
452 02-07-2008 18:22:02 35.2 C 7.99 g/m*3 35.2 C 0 km/h
453 02-07-2008 18:34:01 34.6 C 7.74 g/m*3 34.6 C 0 km/h
454 02-07-2008 18:46:02 33.7 C 7.39 g/m*3 33.7 C 0 km/h
455 02-07-2008 18:58:02 33.8 C 7.43 g/m*3 33.8 C 0 km/h
456 02-07-2008 19:10:01 33.2 C 7.55 g/m*3 33.2 C 0 km/h
457 02-07-2008 19:22:02 32 C 7.76 g/m*3 32 C 0 km/h
458 02-07-2008 19:34:01 31.4 C 8.17 g/m*3 31.4 C 0 km/h
459 02-07-2008 19:46:02 30.9 C 8.28 g/m*3 30.9 C 0 km/h
460 02-07-2008 19:58:02 30.6 C 8.14 g/m*3 30.6 C 0 km/h
461 02-07-2008 20:10:01 30.4 C 8.37 g/m*3 30.4 C 0 km/h
462 02-07-2008 20:22:02 29.2 C 10.16 g/m*3 29.2 C 0 km/h
463 02-07-2008 20:34:01 27.9 C 10.55 g/m*3 27.9 C 0 km/h
464 02-07-2008 20:46:01 28 C 11.15 g/m*3 28 C 0 km/h
465 02-07-2008 20:58:01 25.2 C 15.13 g/m*3 25.2 C 0 km/h
466 02-07-2008 21:10:01 25.3 C 13.11 g/m*3 25.3 C 0 km/h
467 02-07-2008 21:22:01 25.7 C 12.69 g/m*3 25.7 C 0 km/h
468 02-07-2008 21:34:01 24.8 C 12.52 g/m*3 24.8 C 0 km/h
469 02-07-2008 21:46:01 24 C 12.18 g/m*3 24 C 0 km/h
470 02-07-2008 21:58:01 24 C 12.62 g/m*3 24 C 0 km/h
471 02-07-2008 22:11:01 24.2 C 12.54 g/m*3 24.2 C 0 km/h
472 02-07-2008 22:23:01 23.4 C 12.62 g/m*3 23.4 C 0 km/h
473 02-07-2008 22:35:01 23.3 C 12.13 g/m*3 23.3 C 0 km/h
474 02-07-2008 22:47:01 23.5 C 12.27 g/m*3 23.5 C 0 km/h
475 02-07-2008 22:59:01 23.4 C 11.78 g/m*3 23.4 C 0 km/h
Sensor: Nr:Datum:Temp:Abs-Feuchte:Windchill:Wind:
Aussen-T/F 476 02-07-2008 23:11:01 23.3 C 11.92 g/m*3 23.3 C 0 km/h
477 02-07-2008 23:23:01 23 C 12.13 g/m*3 23 C 0 km/h
478 02-07-2008 23:35:01 22.7 C 12.12 g/m*3 22.7 C 0 km/h
479 02-07-2008 23:47:01 22.7 C 12.12 g/m*3 22.7 C 0 km/h
480 02-07-2008 23:59:02 22.6 C 12.05 g/m*3 22.6 C 0 km/h
481 03-07-2008 00:11:02 22.7 C 11.92 g/m*3 22.7 C 0 km/h
482 03-07-2008 00:23:02 22.7 C 11.72 g/m*3 22.7 C 0 km/h
483 03-07-2008 00:35:02 22.5 C 11.58 g/m*3 22.5 C 0 km/h
484 03-07-2008 00:47:02 22.3 C 11.45 g/m*3 22.3 C 0 km/h
485 03-07-2008 00:59:02 21.6 C 11.76 g/m*3 21.6 C 0 km/h
486 03-07-2008 01:11:02 21.3 C 11.93 g/m*3 21.3 C 0 km/h
487 03-07-2008 01:23:02 21.3 C 12.12 g/m*3 21.3 C 0 km/h
488 03-07-2008 01:35:02 20.5 C 12.99 g/m*3 20.5 C 0 km/h
489 03-07-2008 01:47:02 20.4 C 13.27 g/m*3 20.4 C 0 km/h
490 03-07-2008 01:59:02 21 C 13.19 g/m*3 21 C 0 km/h
491 03-07-2008 02:11:02 21.2 C 12.6 g/m*3 21.2 C 0 km/h
492 03-07-2008 02:23:02 21.2 C 12.23 g/m*3 21.2 C 0 km/h
493 03-07-2008 02:35:02 21.2 C 11.86 g/m*3 21.2 C 0 km/h
494 03-07-2008 02:47:02 21.3 C 11.93 g/m*3 21.3 C 0 km/h
495 03-07-2008 02:59:02 21.3 C 11.93 g/m*3 21.3 C 0 km/h
496 03-07-2008 03:11:02 21.3 C 11.93 g/m*3 21.3 C 0 km/h
497 03-07-2008 03:23:02 20 C 13.13 g/m*3 20 C 0 km/h
498 03-07-2008 03:35:02 19.4 C 13.51 g/m*3 19.4 C 0 km/h
499 03-07-2008 03:47:02 19.7 C 13.41 g/m*3 19.7 C 0 km/h
500 03-07-2008 03:59:02 19.9 C 13.4 g/m*3 19.9 C 0 km/h
Sensor: Nr:Datum:Temp:Abs-Feuchte:Windchill:Wind:
Aussen-T/F 501 03-07-2008 04:11:03 19.9 C 13.4 g/m*3 19.9 C 0 km/h
502 03-07-2008 04:23:03 20 C 13.48 g/m*3 20 C 0 km/h
503 03-07-2008 04:35:03 19.8 C 13.32 g/m*3 19.8 C 0 km/h
504 03-07-2008 04:47:03 19.8 C 13.32 g/m*3 19.8 C 0 km/h
505 03-07-2008 04:59:03 19.5 C 13.09 g/m*3 19.5 C 0 km/h
506 03-07-2008 05:11:03 19.5 C 13.26 g/m*3 19.5 C 0 km/h
507 03-07-2008 05:23:03 19.3 C 13.1 g/m*3 19.3 C 0 km/h
508 03-07-2008 05:35:03 19.3 C 13.1 g/m*3 19.3 C 0 km/h
509 03-07-2008 05:47:03 19.5 C 13.26 g/m*3 19.5 C 0 km/h
510 03-07-2008 05:59:03 19.5 C 13.26 g/m*3 19.5 C 0 km/h
511 03-07-2008 06:11:03 19.4 C 13.18 g/m*3 19.4 C 0 km/h
512 03-07-2008 06:23:03 19.7 C 13.41 g/m*3 19.7 C 0 km/h
513 03-07-2008 06:35:02 19.9 C 13.57 g/m*3 19.9 C 0 km/h
514 03-07-2008 06:47:02 19.8 C 13.32 g/m*3 19.8 C 0 km/h
515 03-07-2008 06:59:02 20 C 13.13 g/m*3 20 C 0 km/h
516 03-07-2008 07:11:02 20.2 C 13.46 g/m*3 20.2 C 0 km/h
517 03-07-2008 07:23:02 20.6 C 13.42 g/m*3 20.6 C 0 km/h
518 03-07-2008 07:35:02 20.8 C 13.4 g/m*3 20.8 C 0 km/h
519 03-07-2008 07:47:02 20.6 C 12.71 g/m*3 20.6 C 0 km/h
520 03-07-2008 07:59:02 20.8 C 12.86 g/m*3 20.8 C 0 km/h
521 03-07-2008 08:11:02 21.5 C 12.63 g/m*3 21.5 C 0 km/h
522 03-07-2008 08:23:02 21.2 C 12.42 g/m*3 21.2 C 0 km/h
523 03-07-2008 08:35:02 21.4 C 12.56 g/m*3 21.4 C 0 km/h
524 03-07-2008 08:47:02 21.7 C 12.02 g/m*3 21.7 C 0 km/h
525 03-07-2008 08:59:02 21.2 C 11.68 g/m*3 21.2 C 0 km/h
Sensor: Nr:Datum:Temp:Abs-Feuchte:Windchill:Wind:
Aussen-T/F 526 03-07-2008 09:11:02 21.6 C 12.14 g/m*3 21.6 C 0 km/h
527 03-07-2008 09:23:02 22 C 12.03 g/m*3 22 C 0 km/h
528 03-07-2008 09:35:02 22.2 C 11.78 g/m*3 22.2 C 0 km/h
529 03-07-2008 09:47:02 22.6 C 11.85 g/m*3 22.6 C 0 km/h
530 03-07-2008 09:59:02 23.3 C 11.71 g/m*3 23.3 C 0 km/h
531 03-07-2008 10:11:02 23.3 C 11.71 g/m*3 23.3 C 0 km/h
532 03-07-2008 10:23:02 22.8 C 11.79 g/m*3 22.8 C 0 km/h
533 03-07-2008 10:35:03 22.7 C 11.92 g/m*3 22.7 C 0 km/h
534 03-07-2008 10:47:02 22.5 C 11.98 g/m*3 22.5 C 0 km/h
535 03-07-2008 10:59:02 22.7 C 12.12 g/m*3 22.7 C 0 km/h
536 03-07-2008 11:11:02 22.9 C 11.85 g/m*3 22.9 C 0 km/h
537 03-07-2008 11:23:02 23.1 C 11.78 g/m*3 23.1 C 0 km/h
538 03-07-2008 11:35:01 23 C 11.92 g/m*3 23 C 0 km/h
539 03-07-2008 11:47:02 23.8 C 11.83 g/m*3 23.8 C 0 km/h
540 03-07-2008 11:59:02 24.2 C 11.66 g/m*3 24.2 C 0 km/h
541 03-07-2008 12:11:01 23.5 C 11.84 g/m*3 23.5 C 0 km/h
542 03-07-2008 12:23:02 23.7 C 11.76 g/m*3 23.7 C 0 km/h
543 03-07-2008 12:35:01 23.7 C 11.76 g/m*3 23.7 C 0 km/h
544 03-07-2008 12:47:02 23.5 C 12.05 g/m*3 23.5 C 0 km/h
545 03-07-2008 12:59:02 23.3 C 12.55 g/m*3 23.3 C 0 km/h
546 03-07-2008 13:11:01 22.5 C 12.78 g/m*3 22.5 C 0 km/h
547 03-07-2008 13:23:02 23.4 C 13.67 g/m*3 23.4 C 0 km/h
548 03-07-2008 13:35:01 24.5 C 12.53 g/m*3 24.5 C 0 km/h
549 03-07-2008 13:47:02 25.1 C 11.57 g/m*3 25.1 C 0 km/h
550 03-07-2008 13:59:02 25.3 C 11.47 g/m*3 25.3 C 0 km/h
Sensor: Nr:Datum:Temp:Abs-Feuchte:Windchill:Wind:
Aussen-T/F 551 03-07-2008 14:11:02 25.7 C 11.01 g/m*3 25.7 C 0 km/h
552 03-07-2008 14:23:03 26.1 C 10.28 g/m*3 26.1 C 0 km/h
553 03-07-2008 14:35:02 26.1 C 10.53 g/m*3 26.1 C 0 km/h
554 03-07-2008 14:47:01 25.7 C 11.01 g/m*3 25.7 C 0 km/h
555 03-07-2008 14:59:01 23.9 C 11.03 g/m*3 23.9 C 0 km/h
556 03-07-2008 15:11:02 21.3 C 13.61 g/m*3 21.3 C 0 km/h
557 03-07-2008 15:23:01 20.2 C 13.99 g/m*3 20.2 C 0 km/h
558 03-07-2008 15:35:01 20 C 14.17 g/m*3 20 C 0 km/h
559 03-07-2008 15:47:01 20 C 14.34 g/m*3 20 C 0 km/h
560 03-07-2008 15:59:01 19.8 C 14.18 g/m*3 19.8 C 0 km/h
561 03-07-2008 16:11:02 19.9 C 14.26 g/m*3 19.9 C 0 km/h
562 03-07-2008 16:23:01 20.3 C 14.77 g/m*3 20.3 C 0 km/h
563 03-07-2008 16:35:02 20 C 14.52 g/m*3 20 C 0 km/h
564 03-07-2008 16:47:02 19.5 C 14.1 g/m*3 19.5 C 0 km/h
565 03-07-2008 16:59:02 17 C 12.01 g/m*3 17 C 0 km/h
566 03-07-2008 17:11:02 17 C 12.59 g/m*3 17 C 0 km/h
567 03-07-2008 17:23:02 17.4 C 13.19 g/m*3 17.4 C 0 km/h
568 03-07-2008 17:35:02 17.2 C 12.89 g/m*3 17.2 C 0 km/h
569 03-07-2008 17:47:02 16.8 C 12.44 g/m*3 16.8 C 0 km/h
570 03-07-2008 17:59:03 17.3 C 12.82 g/m*3 17.3 C 0 km/h
571 03-07-2008 18:11:01 17.8 C 13.05 g/m*3 17.8 C 0 km/h
572 03-07-2008 18:23:02 17.5 C 12.67 g/m*3 17.5 C 0 km/h
573 03-07-2008 18:35:02 17.5 C 12.82 g/m*3 17.5 C 0 km/h
574 03-07-2008 18:47:02 17.7 C 13.13 g/m*3 17.7 C 0 km/h
575 03-07-2008 18:59:02 17.7 C 13.13 g/m*3 17.7 C 0 km/h
Sensor: Nr:Datum:Temp:Abs-Feuchte:Windchill:Wind:
Aussen-T/F 576 03-07-2008 19:11:02 17.9 C 13.28 g/m*3 17.9 C 0 km/h
577 03-07-2008 19:23:02 17.7 C 12.82 g/m*3 17.7 C 0 km/h
578 03-07-2008 19:35:02 17.6 C 12.45 g/m*3 17.6 C 0 km/h
579 03-07-2008 19:47:02 17.6 C 12.6 g/m*3 17.6 C 0 km/h
580 03-07-2008 19:59:02 17.3 C 12.52 g/m*3 17.3 C 0 km/h
581 03-07-2008 20:11:02 17.1 C 12.52 g/m*3 17.1 C 0 km/h
582 03-07-2008 20:23:02 17.2 C 12.74 g/m*3 17.2 C 0 km/h
583 03-07-2008 20:35:02 17 C 12.44 g/m*3 17 C 0 km/h
584 03-07-2008 20:47:02 17.1 C 12.66 g/m*3 17.1 C 0 km/h
585 03-07-2008 20:59:02 17 C 12.73 g/m*3 17 C 0 km/h
586 03-07-2008 21:11:02 16.9 C 12.8 g/m*3 16.9 C 0 km/h
587 03-07-2008 21:23:02 16.8 C 12.72 g/m*3 16.8 C 0 km/h
588 03-07-2008 21:35:02 16.5 C 12.5 g/m*3 16.5 C 0 km/h
589 03-07-2008 21:47:02 16.4 C 12.42 g/m*3 16.4 C 0 km/h
590 03-07-2008 21:59:02 16 C 12.13 g/m*3 16 C 0 km/h
591 03-07-2008 22:12:02 15.6 C 11.97 g/m*3 15.6 C 0 km/h
592 03-07-2008 22:24:03 15.3 C 11.75 g/m*3 15.3 C 0 km/h
593 03-07-2008 22:36:03 15.5 C 12.03 g/m*3 15.5 C 0 km/h
594 03-07-2008 22:48:03 15.4 C 11.96 g/m*3 15.4 C 0 km/h
595 03-07-2008 23:00:03 15.3 C 11.88 g/m*3 15.3 C 0 km/h
596 03-07-2008 23:12:03 15.1 C 11.74 g/m*3 15.1 C 0 km/h
597 03-07-2008 23:24:03 15.2 C 11.81 g/m*3 15.2 C 0 km/h
598 03-07-2008 23:36:03 15.4 C 11.96 g/m*3 15.4 C 0 km/h
599 03-07-2008 23:48:03 15.4 C 11.96 g/m*3 15.4 C 0 km/h

Legende:
   Min
   Max


Maximal/Minimal-Werte vom 29.06.2008 - 03.07.2008

Sensor Min Max Avg
Temp
(Aussen-T/F)
13.9 °C
01-07-2008  06:09:04
35.3 °C
02-07-2008  17:58:02
23.34 °C
Abs-Feuchte
(Aussen-T/F)
5.47 g/m*3
30-06-2008  14:44:01
15.13 g/m*3
02-07-2008  20:58:01
9.36 g/m*3
Windchill
(Aussen-T/F)
13.9 C
01-07-2008  06:09:04
35.3 C
02-07-2008  17:58:02
23.3 C

Die Daten stammen von einer Davis Vantage Pro 2 Wetter-Station und werden unter Linux mit der Software wview2wettercgi und aufbereitet. Alle Angaben erfolgen ohne Gewähr für ihre Vollständigkeit oder Richtigkeit.
Kontakt: Rainer Krienke krienke@uni-koblenz.de . Meine Webseiten an der Uni Koblenz oder privat.
Version: $Revision: 0.78 $